Mary Esther, FL (32569)

1:27 AM CST on December 28, 2014 (GMT -0600)
Willow Bend | Change Station
CLOSE
Current Station
Personal Weather Station
Location: Fort Walton Beach, FL
Elevation: 66 ft
Nearby Weather Stations

Elev 66 ft 30.46 °N, 86.66 °W | Updated 14 minutes ago

Overcast
Overcast
63.9 °F
Feels Like 63.9 °F
N
0.0
Wind Variable Wind from ENE

Today
High -- | Low -- °F
--% Chance of Precip.
Yesterday
High -- | Low -- °F
Precip. -- in
6:42 AM 4:54 PM
Waxing Crescent, 45% visible
Pressure 30.11 in
Visibility 10.0 miles
Clouds Mostly Cloudy 1200 ft
Overcast 4300 ft
Dew Point 55 °F
Humidity 73%
Rainfall 0.00 in
Snow Depth Not available.
UV 0 out of 12
Pollen .50 out of 12
Air Quality Not available.
Flu Activity Not available.
METAR KHRT 280658Z AUTO 13007KT 10SM BKN012 OVC043 17/13 A3010 RMK AO2 CIG 012V043 BKN V SCT SLP195 $

More Conditions Fewer Conditions

Pressure 30.11 in
Visibility 10.0 miles
Clouds Mostly Cloudy 1200 ft
Overcast 4300 ft
Dew Point 55 °F
Humidity 73%
Rainfall 0.00 in
Snow Depth Not available.
UV 0 out of 12
Pollen .50 out of 12
Air Quality Not available.
Flu Activity Not available.
METAR KHRT 280658Z AUTO 13007KT 10SM BKN012 OVC043 17/13 A3010 RMK AO2 CIG 012V043 BKN V SCT SLP195 $

More Conditions Fewer Conditions

10-Day Weather Forecast

Almanac

Astronomy

Dec. 28, 2014 Rise Set
Actual Time
Civil Twilight
Nautical Twilight
Astronomical Twilight
Moon
Length of Visible Light
Length of Day
Tomorrow will be .
, % of the Moon is Illuminated

Today's Extremes

State Highs State Lows

Community

WunderPhotos

Upload Photos

1,781,210 photos uploaded!

WunderBlogs® & News

Nearby

Air Quality

  Air Quality AQ Index Pollutant
Not available.

Snow Depth

Station Depth Elevation

Earthquake Activity

City Distance Mag. Time & Date
Minimum magnitude displayed is 2.5.

Coastal Water Temperatures

Place Temperature

Nearby Weather Stations